Time;durP1;ratioP1;P1;durP2;ratioP2;P2;SDS_P1;SDS_P2;PMS_P1;PMS_P2;Temp;Humidity;BMP_temperature;BMP_pressure;BME280_temperature;BME280_humidity;BME280_pressure;Samples;Min_cycle;Max_cycle;Signal;HPM_P1;HPM_P2
2021/08/11 00:01:36;;;;;;;19.15;8.23;;;14.20;99.90;;;12.98;100.00;102668.56;5020471;28;20520;-75
2021/08/11 00:04:03;;;;;;;22.20;8.35;;;14.20;99.90;;;12.94;100.00;102674.84;5034459;28;20485;-75
2021/08/11 00:06:29;;;;;;;20.33;8.43;;;14.20;99.90;;;12.90;100.00;102657.31;5036663;28;20044;-76
2021/08/11 00:08:55;;;;;;;27.63;8.23;;;14.10;99.90;;;12.86;100.00;102653.88;5026425;28;20449;-76
2021/08/11 00:11:21;;;;;;;30.13;8.85;;;14.10;99.90;;;12.86;100.00;102651.22;5038154;28;20037;-75
2021/08/11 00:13:47;;;;;;;18.50;8.43;;;14.10;99.90;;;12.87;100.00;102646.81;5028666;28;20466;-75
2021/08/11 00:16:13;;;;;;;20.08;8.55;;;14.10;99.90;;;12.86;100.00;102640.66;5047456;28;20098;-75
2021/08/11 00:18:40;;;;;;;16.17;8.32;;;14.10;99.90;;;12.85;100.00;102718.25;5000521;28;20112;-75
2021/08/11 00:21:06;;;;;;;20.40;8.70;;;14.10;99.90;;;12.84;100.00;102700.63;5019087;28;20025;-76
2021/08/11 00:23:33;;;;;;;16.58;7.70;;;14.10;99.90;;;12.84;100.00;102718.28;5010210;28;20037;-75
2021/08/11 00:25:59;;;;;;;21.45;9.00;;;14.10;99.90;;;12.84;100.00;102716.50;5027276;28;20013;-75
2021/08/11 00:28:25;;;;;;;27.02;9.07;;;14.10;99.90;;;12.85;100.00;102696.19;5025287;28;20021;-75
2021/08/11 00:30:53;;;;;;;16.23;9.20;;;14.10;99.90;;;12.85;100.00;102698.84;5016762;28;20493;-76
2021/08/11 00:33:20;;;;;;;30.25;8.45;;;14.10;99.90;;;12.82;100.00;102691.00;5035944;28;20055;-75
2021/08/11 00:35:47;;;;;;;24.35;8.68;;;14.00;99.90;;;12.79;100.00;102685.81;5026147;28;20056;-75
2021/08/11 00:38:13;;;;;;;18.17;8.55;;;14.00;99.90;;;12.78;100.00;102697.28;5023369;28;20163;-75
2021/08/11 00:40:39;;;;;;;25.30;9.40;;;14.00;99.90;;;12.81;100.00;102702.50;5027155;28;20160;-75
2021/08/11 00:43:08;;;;;;;29.52;8.48;;;14.00;99.90;;;12.83;100.00;102704.19;5035005;28;20037;-76
2021/08/11 00:45:36;;;;;;;12.30;8.13;;;14.10;99.90;;;12.82;100.00;102699.78;5029291;28;20115;-75
2021/08/11 00:48:02;;;;;;;18.80;8.23;;;14.10;99.90;;;12.84;100.00;102694.47;5035281;28;20039;-75
2021/08/11 00:50:28;;;;;;;22.50;8.27;;;14.70;99.90;;;12.82;100.00;102709.50;5016872;28;20041;-75
2021/08/11 00:52:55;;;;;;;21.27;8.70;;;14.10;99.90;;;12.81;100.00;102694.56;5015426;28;20024;-75
2021/08/11 00:55:24;;;;;;;25.40;8.88;;;14.10;99.90;;;12.79;100.00;102689.31;5034621;28;20129;-76
2021/08/11 00:57:54;;;;;;;19.65;8.57;;;14.00;99.90;;;12.77;100.00;102685.84;5033079;28;20130;-75
2021/08/11 01:00:22;;;;;;;21.58;8.55;;;14.00;99.90;;;12.76;100.00;102678.78;5035152;28;20044;-75
2021/08/11 01:02:52;;;;;;;17.90;8.50;;;14.00;99.90;;;12.75;100.00;102669.16;5034814;28;20508;-76
2021/08/11 01:05:20;;;;;;;21.75;8.50;;;14.00;99.90;;;12.69;100.00;102662.22;5034577;28;20039;-76
2021/08/11 01:07:50;;;;;;;15.63;8.63;;;13.90;99.90;;;12.64;100.00;102657.97;5034300;28;20393;-76
2021/08/11 01:10:17;;;;;;;18.42;7.75;;;13.80;99.90;;;12.57;100.00;102646.69;5033378;28;20116;-75
2021/08/11 01:12:43;;;;;;;14.77;7.60;;;13.80;99.90;;;12.47;100.00;102630.16;5035364;28;20548;-76
2021/08/11 01:15:10;;;;;;;22.52;8.13;;;13.70;99.90;;;12.40;100.00;102625.94;5023358;28;20147;-75
2021/08/11 01:17:36;;;;;;;19.27;8.77;;;13.60;99.90;;;12.34;100.00;102625.22;5039936;28;20581;-75
2021/08/11 01:20:05;;;;;;;18.88;8.50;;;13.50;99.90;;;12.26;100.00;102617.47;5010170;28;20051;-76
2021/08/11 01:22:56;;;;;;;19.52;8.57;;;13.50;99.90;;;12.22;100.00;102610.53;5034511;28;20054;-75
2021/08/11 01:25:50;;;;;;;17.90;8.32;;;13.50;99.90;;;12.18;100.00;102620.31;5010458;28;20434;-75
2021/08/11 01:28:43;;;;;;;19.70;9.90;;;13.40;99.90;;;12.15;100.00;102615.09;5041169;28;20055;-75
2021/08/11 01:31:24;;;;;;;21.60;9.63;;;13.40;99.90;;;12.14;100.00;102613.38;5050250;28;20485;-75
2021/08/11 01:33:59;;;;;;;16.25;9.50;;;13.40;99.90;;;12.13;100.00;102613.38;5009402;28;20053;-75
2021/08/11 01:36:55;;;;;;;26.25;8.93;;;13.30;99.90;;;12.06;100.00;102610.03;5035600;28;21107;-76
2021/08/11 01:39:42;;;;;;;15.02;8.27;;;13.30;99.90;;;11.99;100.00;102589.97;5037329;28;20063;-76
2021/08/11 01:42:43;;;;;;;19.70;9.65;;;13.20;99.90;;;11.91;100.00;102613.88;5034353;28;20044;-76
2021/08/11 01:45:29;;;;;;;23.70;9.00;;;13.10;99.90;;;11.85;100.00;102580.50;4996861;28;20517;-76
2021/08/11 01:48:07;;;;;;;18.42;9.43;;;13.10;99.90;;;11.81;100.00;102581.47;5034198;28;20056;-76
2021/08/11 01:50:38;;;;;;;25.42;9.25;;;13.10;99.90;;;11.78;100.00;102576.28;5004121;28;20059;-76
2021/08/11 01:53:08;;;;;;;21.13;9.32;;;13.00;99.90;;;11.75;100.00;102575.47;5023701;28;20064;-76
2021/08/11 01:55:36;;;;;;;20.15;9.07;;;13.00;99.90;;;11.71;100.00;102574.69;5036481;28;20427;-76
2021/08/11 01:58:03;;;;;;;16.55;8.45;;;13.00;99.90;;;11.65;100.00;102566.91;4994362;28;20128;-76
2021/08/11 02:00:30;;;;;;;27.20;9.55;;;12.90;99.90;;;11.60;100.00;102569.66;5036555;28;20146;-76
2021/08/11 02:02:57;;;;;;;28.65;9.18;;;12.90;99.90;;;11.57;100.00;102567.06;5023307;28;20090;-76
2021/08/11 02:05:32;;;;;;;18.55;9.57;;;12.80;99.90;;;11.53;100.00;102562.75;5029131;28;20071;-76
2021/08/11 02:08:02;;;;;;;26.77;9.52;;;12.80;99.90;;;11.54;100.00;102563.63;5024881;28;20077;-76
2021/08/11 02:10:29;;;;;;;22.05;10.80;;;12.80;99.90;;;11.50;100.00;102562.81;5036740;28;20163;-76
2021/08/11 02:12:59;;;;;;;20.45;9.30;;;12.80;99.90;;;11.48;100.00;102557.56;5033887;28;20056;-76
2021/08/11 02:15:25;;;;;;;27.15;10.57;;;12.70;99.90;;;11.44;100.00;102553.25;5036664;28;20024;-75
2021/08/11 02:17:52;;;;;;;23.70;10.50;;;12.70;99.90;;;11.42;100.00;102556.84;5037462;28;20037;-76
2021/08/11 02:20:20;;;;;;;27.65;12.25;;;12.70;99.90;;;11.39;100.00;102559.56;5019304;28;20041;-76
2021/08/11 02:22:48;;;;;;;22.83;10.23;;;12.60;99.90;;;11.35;100.00;102549.97;4994229;28;20063;-76
2021/08/11 02:25:15;;;;;;;17.13;10.70;;;12.60;99.90;;;11.32;100.00;102552.66;5010159;28;20063;-76
2021/08/11 02:28:12;;;;;;;30.23;11.50;;;12.60;99.90;;;11.29;100.00;102553.56;5026985;28;20074;-76
2021/08/11 02:30:44;;;;;;;;;;;12.60;99.90;;;11.27;100.00;102568.56;5037880;28;20453;-76
2021/08/11 02:33:16;;;;;;;25.67;10.43;;;12.60;99.90;;;11.26;100.00;102565.06;5052686;28;20033;-76
2021/08/11 02:36:11;;;;;;;28.23;12.07;;;12.60;99.90;;;11.29;100.00;102572.94;5046864;28;20067;-76
2021/08/11 02:38:42;;;;;;;28.17;14.18;;;12.60;99.90;;;11.34;100.00;102571.94;5024326;28;20155;-76
2021/08/11 02:41:21;;;;;;;24.98;14.05;;;12.70;99.90;;;11.41;100.00;102607.88;5013861;28;20029;-76
2021/08/11 02:44:05;;;;;;;28.30;13.57;;;12.70;99.90;;;11.45;100.00;102596.34;5033981;28;20518;-76
2021/08/11 02:46:33;;;;;;;24.20;14.10;;;12.70;99.90;;;11.45;100.00;102623.59;5027362;28;20052;-76
2021/08/11 02:49:06;;;;;;;31.40;14.50;;;12.80;99.90;;;11.46;100.00;102633.22;5030342;28;20032;-76
2021/08/11 02:51:35;;;;;;;29.40;14.75;;;12.70;99.90;;;11.40;100.00;102646.56;5053193;28;20123;-76
2021/08/11 02:54:16;;;;;;;32.85;13.60;;;12.70;99.90;;;11.37;100.00;102640.47;5043178;28;20036;-75
2021/08/11 02:56:45;;;;;;;39.17;14.48;;;12.70;99.90;;;11.37;100.00;102627.28;5030501;28;20028;-76
2021/08/11 02:59:13;;;;;;;33.60;15.43;;;12.70;99.90;;;11.34;100.00;102619.41;5036576;28;20033;-76
2021/08/11 03:01:41;;;;;;;34.72;15.55;;;12.60;99.90;;;11.30;100.00;102631.81;5019530;28;20071;-75
2021/08/11 03:04:07;;;;;;;43.38;15.65;;;12.50;99.90;;;11.24;100.00;102700.50;5036189;28;20047;-76
2021/08/11 03:06:34;;;;;;;36.15;16.67;;;12.50;99.90;;;11.23;100.00;102834.13;5022380;28;20036;-76
2021/08/11 03:09:02;;;;;;;43.00;17.33;;;12.50;99.90;;;11.23;100.00;102772.56;5027265;28;20063;-76
2021/08/11 03:11:29;;;;;;;37.70;16.88;;;12.50;99.90;;;11.21;100.00;102727.78;5027887;28;20128;-76
2021/08/11 03:13:58;;;;;;;40.28;17.30;;;12.50;99.90;;;11.19;100.00;102711.13;5037497;28;20538;-76
2021/08/11 03:16:24;;;;;;;41.38;17.98;;;12.50;99.90;;;11.19;100.00;102708.47;5005835;28;20496;-76
2021/08/11 03:18:51;;;;;;;44.78;19.20;;;12.40;99.90;;;11.15;100.00;102714.72;4988432;28;20063;-76
2021/08/11 03:21:18;;;;;;;45.03;18.27;;;12.50;99.90;;;11.12;100.00;102696.28;5047847;28;20063;-76
2021/08/11 03:23:44;;;;;;;48.55;18.98;;;12.40;99.90;;;11.09;100.00;102691.94;5038539;28;20036;-76
2021/08/11 03:26:10;;;;;;;50.63;19.15;;;12.40;99.90;;;11.09;100.00;102684.03;4987048;28;20516;-76
2021/08/11 03:28:39;;;;;;;41.88;18.40;;;12.30;99.90;;;11.02;100.00;102666.59;5039017;28;20117;-77
2021/08/11 03:31:05;;;;;;;45.35;19.15;;;12.30;99.90;;;10.99;100.00;102681.56;5006597;28;20419;-76
2021/08/11 03:33:31;;;;;;;40.55;18.98;;;12.30;99.90;;;11.00;100.00;102680.69;5011498;28;20476;-76
2021/08/11 03:35:57;;;;;;;50.50;19.38;;;12.30;99.90;;;11.01;100.00;102685.06;5036998;28;20025;-76
2021/08/11 03:38:23;;;;;;;53.67;20.77;;;12.30;99.90;;;11.00;100.00;102686.84;5018645;28;20108;-76
2021/08/11 03:40:49;;;;;;;46.90;21.42;;;12.30;99.90;;;10.99;100.00;102684.22;5015569;28;20022;-76
2021/08/11 03:43:15;;;;;;;49.65;19.42;;;12.30;99.90;;;10.96;100.00;102666.69;5028278;28;20120;-76
2021/08/11 03:45:43;;;;;;;44.10;18.02;;;12.30;99.90;;;10.96;100.00;102666.69;5002334;28;20108;-76
2021/08/11 03:48:10;;;;;;;57.65;20.83;;;12.30;99.90;;;10.93;100.00;102657.97;5028771;28;20445;-75
2021/08/11 03:50:36;;;;;;;52.03;20.00;;;12.20;99.90;;;10.91;100.00;102660.66;5036297;28;20063;-76
2021/08/11 03:53:02;;;;;;;47.88;20.45;;;12.20;99.90;;;10.91;100.00;102655.38;5025859;28;20429;-76
2021/08/11 03:55:32;;;;;;;60.17;21.42;;;12.20;99.90;;;10.87;100.00;102665.09;5003566;28;20063;-76
2021/08/11 03:58:01;;;;;;;60.92;21.50;;;12.20;99.90;;;10.88;100.00;102663.31;5003259;28;20112;-76
2021/08/11 04:00:28;;;;;;;53.92;22.27;;;12.20;99.90;;;10.92;100.00;102682.59;5028988;28;20528;-76
2021/08/11 04:02:54;;;;;;;72.55;24.55;;;12.30;99.90;;;10.99;100.00;102718.47;5033420;28;20071;-75
2021/08/11 04:05:20;;;;;;;72.70;24.27;;;12.30;99.90;;;11.03;100.00;102705.22;5026261;28;20055;-76
2021/08/11 04:07:48;;;;;;;64.45;24.65;;;12.30;99.90;;;11.09;100.00;102704.25;5035621;28;20068;-76
2021/08/11 04:10:14;;;;;;;54.72;24.15;;;12.40;99.90;;;11.14;100.00;102744.59;5012013;28;20110;-75
2021/08/11 04:12:40;;;;;;;70.82;24.75;;;12.50;99.90;;;11.21;100.00;102740.06;5018670;28;20051;-76
2021/08/11 04:15:07;;;;;;;51.45;21.92;;;12.50;99.90;;;11.25;100.00;102724.19;5018507;28;20530;-76
2021/08/11 04:17:33;;;;;;;53.67;23.35;;;12.60;99.90;;;11.32;100.00;102742.53;5010255;28;20169;-76
2021/08/11 04:20:00;;;;;;;58.00;23.13;;;12.60;99.90;;;11.33;100.00;102726.69;5014704;28;20083;-76
2021/08/11 04:22:26;;;;;;;61.20;23.67;;;12.70;99.90;;;11.47;100.00;102729.09;5006981;28;20067;-76
2021/08/11 04:24:54;;;;;;;55.92;23.48;;;12.70;99.90;;;11.50;100.00;102784.44;5019087;28;20513;-76
2021/08/11 04:27:20;;;;;;;70.05;25.40;;;12.80;99.90;;;11.59;100.00;102731.47;5024883;28;20036;-76
2021/08/11 04:29:46;;;;;;;61.50;26.00;;;12.90;99.90;;;11.67;100.00;102732.22;5019823;28;20068;-76
2021/08/11 04:32:12;;;;;;;63.45;26.20;;;13.00;99.90;;;11.75;100.00;102769.03;5002503;28;20037;-76
2021/08/11 04:34:38;;;;;;;73.25;27.02;;;13.00;99.90;;;11.82;100.00;102767.13;5007658;28;20025;-76
2021/08/11 04:37:05;;;;;;;63.58;27.17;;;13.10;99.90;;;11.86;100.00;102772.31;5020364;28;20033;-76
2021/08/11 04:39:32;;;;;;;75.53;27.88;;;13.10;99.90;;;11.93;100.00;102781.03;5015291;28;20051;-76
2021/08/11 04:41:58;;;;;;;78.85;29.95;;;13.20;99.90;;;12.00;100.00;102776.50;5008774;28;20075;-76
2021/08/11 04:44:25;;;;;;;89.38;31.58;;;13.30;99.90;;;12.07;100.00;102781.63;5006281;28;20303;-76
2021/08/11 04:46:51;;;;;;;80.70;30.40;;;13.40;99.90;;;12.17;100.00;102800.78;5031754;28;20037;-76
2021/08/11 04:49:16;;;;;;;83.47;32.97;;;13.40;99.90;;;12.22;100.00;102850.88;5042678;28;20078;-75
2021/08/11 04:51:42;;;;;;;93.43;33.33;;;13.50;99.90;;;12.28;100.00;102806.72;5025774;28;20476;-76
2021/08/11 04:54:08;;;;;;;104.25;34.85;;;13.50;99.90;;;12.36;100.00;102859.41;5011698;28;20185;-76
2021/08/11 04:56:34;;;;;;;96.95;34.25;;;13.60;99.90;;;12.46;100.00;102841.56;5015622;28;20041;-76
2021/08/11 04:59:00;;;;;;;93.20;33.33;;;13.60;99.90;;;12.48;100.00;102855.63;5000838;28;20025;-76
2021/08/11 05:01:26;;;;;;;95.28;35.20;;;13.70;99.90;;;12.55;100.00;102862.53;5006985;28;20618;-76
2021/08/11 05:03:52;;;;;;;104.00;35.63;;;13.80;99.90;;;12.60;100.00;102955.81;5033456;28;20055;-76
2021/08/11 05:06:19;;;;;;;92.15;35.17;;;13.80;99.90;;;12.64;100.00;102927.56;5031796;28;20884;-76
2021/08/11 05:08:45;;;;;;;99.03;37.25;;;13.80;99.90;;;12.71;100.00;102926.53;5029751;28;20067;-76
2021/08/11 05:11:11;;;;;;;93.78;34.20;;;14.00;99.90;;;12.83;100.00;102917.44;5039605;28;20036;-76
2021/08/11 05:13:37;;;;;;;91.57;33.30;;;14.00;99.90;;;12.86;100.00;102926.19;5017925;28;20405;-76
2021/08/11 05:16:04;;;;;;;96.75;34.63;;;14.10;99.90;;;12.93;100.00;102934.88;5031894;28;20458;-76
2021/08/11 05:18:30;;;;;;;77.55;31.55;;;14.20;99.90;;;12.91;100.00;102940.22;5024520;28;20384;-76
2021/08/11 05:20:56;;;;;;;67.18;29.27;;;14.20;99.90;;;12.98;100.00;102956.81;5032972;28;20039;-76
2021/08/11 05:23:22;;;;;;;74.70;29.67;;;14.20;99.90;;;13.02;100.00;102947.03;5033126;28;20037;-76
2021/08/11 05:25:49;;;;;;;61.83;28.58;;;14.30;99.90;;;13.01;100.00;102945.28;5033626;28;20058;-76
2021/08/11 05:28:15;;;;;;;65.53;28.40;;;14.30;99.90;;;13.05;100.00;103032.47;5029129;28;20033;-76
2021/08/11 05:30:41;;;;;;;68.70;28.90;;;14.30;99.90;;;13.08;100.00;102963.63;5035015;28;20037;-76
2021/08/11 05:33:08;;;;;;;76.40;28.85;;;14.30;99.90;;;13.06;100.00;102962.78;5024680;28;20039;-76
2021/08/11 05:35:34;;;;;;;65.88;29.75;;;14.40;99.90;;;13.18;100.00;102968.75;5041674;28;20071;-76
2021/08/11 05:38:02;;;;;;;61.33;28.70;;;14.40;99.90;;;13.21;100.00;102979.25;5025120;28;20033;-76
2021/08/11 05:40:28;;;;;;;64.15;29.88;;;14.50;99.90;;;13.29;100.00;102980.84;5032319;28;20037;-76
2021/08/11 05:42:54;;;;;;;64.50;28.77;;;14.60;99.90;;;13.33;100.00;102979.88;5014199;28;20075;-76
2021/08/11 05:45:20;;;;;;;62.97;28.30;;;14.50;99.90;;;13.32;100.00;102975.47;5004860;28;20033;-76
2021/08/11 05:47:46;;;;;;;62.47;27.13;;;14.60;99.90;;;13.39;100.00;102994.75;5005530;28;20091;-76
2021/08/11 05:50:12;;;;;;;65.22;28.52;;;14.70;99.90;;;13.48;100.00;103021.00;5016381;28;20060;-76
2021/08/11 05:52:38;;;;;;;54.20;27.77;;;14.80;99.90;;;13.63;100.00;103008.31;5003215;28;20033;-76
2021/08/11 05:55:05;;;;;;;63.42;28.60;;;14.90;99.90;;;13.65;100.00;102991.50;5052682;28;20504;-76
2021/08/11 05:57:38;;;;;;;57.60;26.55;;;14.90;99.90;;;13.76;100.00;103155.41;5041015;28;20048;-75
2021/08/11 06:00:07;;;;;;;53.03;26.70;;;15.10;99.90;;;13.94;100.00;103083.50;5025457;28;20397;-76
2021/08/11 06:02:40;;;;;;;59.70;25.35;;;15.20;99.90;;;14.09;100.00;103068.16;5015106;28;20155;-76
2021/08/11 06:05:10;;;;;;;52.15;24.58;;;15.40;99.90;;;14.20;100.00;103078.50;5032072;28;20044;-76
2021/08/11 06:07:36;;;;;;;53.25;24.02;;;15.60;99.90;;;14.45;100.00;103089.34;5041615;28;20032;-76
2021/08/11 06:10:04;;;;;;;41.70;22.13;;;15.70;99.90;;;14.34;100.00;103086.94;5009648;28;20104;-75
2021/08/11 06:12:31;;;;;;;35.45;20.10;;;15.70;99.90;;;14.35;100.00;103051.59;5036702;28;20424;-76
2021/08/11 06:14:57;;;;;;;39.55;21.40;;;15.60;99.90;;;14.31;100.00;103056.09;5016958;28;20029;-75
2021/08/11 06:17:23;;;;;;;44.33;22.13;;;15.70;99.90;;;14.55;100.00;103094.41;5048483;28;20028;-76
2021/08/11 06:19:49;;;;;;;37.25;20.35;;;16.00;99.90;;;14.83;100.00;103109.59;5012288;28;20051;-75
2021/08/11 06:22:16;;;;;;;38.55;19.88;;;16.10;99.90;;;14.86;100.00;103202.38;5020256;28;20061;-76
2021/08/11 06:24:42;;;;;;;31.13;18.05;;;16.10;99.90;;;14.75;100.00;103078.00;5005013;28;20044;-76
2021/08/11 06:27:09;;;;;;;35.03;17.65;;;16.10;99.90;;;14.81;100.00;103171.56;5031660;28;20079;-76
2021/08/11 06:29:36;;;;;;;36.20;17.33;;;16.10;99.90;;;14.76;100.00;103054.97;5031272;28;20346;-76
2021/08/11 06:32:02;;;;;;;34.42;16.67;;;16.10;99.90;;;14.85;100.00;103136.94;5007980;28;20037;-77
2021/08/11 06:34:31;;;;;;;27.58;15.60;;;16.10;99.90;;;14.79;100.00;103059.31;5023442;28;20061;-76
2021/08/11 06:36:57;;;;;;;28.40;16.45;;;16.20;99.90;;;14.93;100.00;103057.19;5030832;28;20029;-76
2021/08/11 06:39:25;;;;;;;26.98;15.95;;;16.30;99.90;;;14.96;100.00;103043.81;5034265;28;20374;-76
2021/08/11 06:41:51;;;;;;;28.23;15.38;;;16.40;99.90;;;15.04;100.00;103057.75;5011551;28;20116;-78
2021/08/11 06:44:18;;;;;;;27.80;15.68;;;16.30;99.90;;;15.32;100.00;103083.50;5040818;28;20503;-76
2021/08/11 06:46:44;;;;;;;30.98;15.70;;;16.80;99.90;;;15.75;100.00;103122.94;5034974;28;20094;-76
2021/08/11 06:49:10;;;;;;;26.30;14.93;;;17.00;99.90;;;16.12;100.00;103159.00;5017302;28;20049;-77
2021/08/11 06:51:36;;;;;;;29.08;14.85;;;17.30;99.90;;;16.53;100.00;103195.81;5035258;28;20021;-76
2021/08/11 06:54:02;;;;;;;25.20;12.90;;;17.30;99.90;;;16.21;99.46;103117.97;5032608;28;20044;-77
2021/08/11 06:56:28;;;;;;;21.67;13.18;;;17.20;99.90;;;16.02;99.65;103083.13;5033761;28;20025;-77
2021/08/11 06:58:54;;;;;;;21.77;12.48;;;17.00;99.90;;;15.79;100.00;103082.09;5038389;28;20112;-76
2021/08/11 07:01:20;;;;;;;23.67;12.52;;;16.90;99.90;;;15.79;100.00;103076.78;5039173;28;20493;-77
2021/08/11 07:03:46;;;;;;;26.33;13.50;;;16.90;99.90;;;15.84;100.00;103065.13;5017410;28;20086;-77
2021/08/11 07:06:12;;;;;;;23.90;13.10;;;17.10;99.90;;;15.98;100.00;103074.41;5032776;28;20037;-77
2021/08/11 07:08:38;;;;;;;30.45;13.38;;;17.20;99.90;;;16.24;100.00;103115.22;5035517;28;20033;-76
2021/08/11 07:11:04;;;;;;;25.77;13.63;;;17.60;99.90;;;16.58;100.00;103156.63;5019400;28;20033;-77
2021/08/11 07:13:30;;;;;;;19.40;11.23;;;17.80;99.90;;;16.59;97.64;103129.13;5018745;28;20507;-76
2021/08/11 07:15:56;;;;;;;18.17;10.93;;;17.70;99.90;;;16.67;96.56;103136.84;5035818;28;20052;-77
2021/08/11 07:18:22;;;;;;;17.92;10.88;;;17.90;99.90;;;16.94;97.56;103182.97;5032881;28;20040;-76
2021/08/11 07:20:48;;;;;;;22.75;11.82;;;18.20;99.90;;;17.04;97.27;103172.84;5005539;28;21420;-77
2021/08/11 07:23:14;;;;;;;29.13;10.75;;;18.30;99.90;;;17.11;94.04;103214.31;5019026;28;20119;-76
2021/08/11 07:25:40;;;;;;;19.73;10.68;;;18.30;99.90;;;17.25;93.23;103182.75;5027973;28;20048;-77
2021/08/11 07:28:08;;;;;;;24.10;9.48;;;18.40;99.90;;;17.58;92.11;103204.63;5030155;28;20884;-76
2021/08/11 07:30:35;;;;;;;17.98;8.95;;;18.70;99.90;;;18.06;91.39;103242.00;5034863;28;20086;-76
2021/08/11 07:33:03;;;;;;;16.95;8.30;;;18.90;99.90;;;18.27;89.05;103322.94;5036760;28;20040;-76
2021/08/11 07:35:30;;;;;;;17.52;8.30;;;19.40;99.90;;;18.51;85.75;103295.34;5036623;28;20064;-76
2021/08/11 07:37:56;;;;;;;10.95;6.85;;;19.70;99.90;;;18.95;83.23;103322.06;5034378;28;20036;-77
2021/08/11 07:40:26;;;;;;;13.60;7.95;;;20.20;99.90;;;19.61;83.08;103363.81;5016142;28;20045;-76
2021/08/11 07:42:52;;;;;;;10.13;6.13;;;20.20;99.90;;;19.12;80.29;103251.94;5028428;28;20026;-76
2021/08/11 07:45:20;;;;;;;15.65;7.35;;;20.00;99.90;;;19.21;82.82;103828.47;5036309;28;20041;-77
2021/08/11 07:47:51;;;;;;;15.60;7.30;;;20.20;99.90;;;19.06;84.37;103538.78;5048144;28;20074;-78
2021/08/11 07:50:19;;;;;;;20.35;7.18;;;19.90;99.90;;;18.57;84.14;103447.16;5032246;28;20378;-76
2021/08/11 07:52:46;;;;;;;12.65;7.03;;;19.80;99.90;;;18.61;86.75;103434.56;5021318;28;20451;-77
2021/08/11 07:55:14;;;;;;;13.82;6.78;;;20.00;99.90;;;19.06;86.59;103365.19;5032151;28;20032;-77
2021/08/11 07:57:40;;;;;;;18.42;7.45;;;20.30;99.90;;;19.15;84.09;103323.03;5030963;28;20048;-77
2021/08/11 08:00:09;;;;;;;17.92;6.50;;;20.30;99.90;;;19.47;82.43;103330.53;5016118;28;20041;-76
2021/08/11 08:02:35;;;;;;;12.95;6.00;;;20.40;99.90;;;19.37;82.86;103286.47;5029474;28;20504;-78
2021/08/11 08:05:02;;;;;;;15.55;6.82;;;20.10;99.90;;;19.04;81.71;103353.72;5030862;28;20047;-76
2021/08/11 08:07:29;;;;;;;12.25;6.50;;;19.80;99.90;;;18.90;84.96;103318.72;5029372;28;20025;-76
2021/08/11 08:09:56;;;;;;;13.20;6.72;;;19.80;99.90;;;18.78;83.65;103252.47;5030822;28;20064;-77
2021/08/11 08:12:22;;;;;;;11.70;6.05;;;19.80;99.90;;;18.79;85.32;103225.72;5032086;28;20067;-78
2021/08/11 08:14:48;;;;;;;15.43;6.90;;;19.90;99.90;;;19.02;84.99;103238.09;5021210;28;20024;-77
2021/08/11 08:17:14;;;;;;;14.68;6.47;;;20.20;99.90;;;20.06;82.63;103365.44;5030287;28;20401;-77
2021/08/11 08:19:40;;;;;;;15.10;5.68;;;20.90;99.90;;;19.65;78.19;103239.81;5029986;28;20033;-76
2021/08/11 08:22:06;;;;;;;12.55;5.95;;;21.00;99.90;;;20.20;81.19;103346.97;5024025;28;20374;-77
2021/08/11 08:24:32;;;;;;;11.40;5.40;;;21.50;99.90;;;21.22;76.27;103377.81;5022272;28;20036;-77
2021/08/11 08:27:00;;;;;;;12.02;5.00;;;22.20;99.90;;;21.45;70.08;103438.34;5014234;28;20025;-77
2021/08/11 08:29:26;;;;;;;10.02;4.35;;;21.70;99.90;;;20.07;74.99;103212.06;5029534;28;20504;-76
2021/08/11 08:31:53;;;;;;;8.60;4.30;;;21.90;99.90;;;20.97;72.76;103289.78;5030884;28;20035;-77
2021/08/11 08:34:19;;;;;;;10.70;4.47;;;22.40;99.90;;;21.89;69.69;103400.31;5011967;28;20021;-77
2021/08/11 08:36:45;;;;;;;6.95;3.72;;;22.80;99.90;;;21.94;69.99;103367.03;5031168;28;20021;-76
2021/08/11 08:39:11;;;;;;;9.98;3.85;;;23.70;99.90;;;22.97;67.17;103474.22;5036753;28;20021;-76
2021/08/11 08:41:42;;;;;;;9.77;4.13;;;24.70;99.90;;;24.39;59.81;103553.84;5004837;28;20128;-77
2021/08/11 08:44:10;;;;;;;8.57;2.75;;;24.40;99.90;;;23.42;60.46;103339.00;5022418;28;20021;-77
2021/08/11 08:46:36;;;;;;;11.40;3.13;;;24.30;99.90;;;23.23;61.69;103405.56;5030107;28;20477;-77
2021/08/11 08:49:03;;;;;;;7.03;2.80;;;23.80;99.90;;;21.50;67.57;103156.66;5027333;28;20123;-77
2021/08/11 08:51:31;;;;;;;6.10;3.00;;;22.70;99.90;;;21.43;69.31;103157.94;5028285;28;20032;-77
2021/08/11 08:53:57;;;;;;;8.55;2.88;;;22.50;99.90;;;21.04;71.65;103097.50;5033574;28;20025;-77
2021/08/11 08:56:24;;;;;;;6.45;1.80;;;22.60;99.90;;;21.55;68.84;103165.28;5021339;28;20044;-77
2021/08/11 08:58:50;;;;;;;4.10;2.10;;;23.40;99.90;;;22.20;62.70;103245.75;5029250;28;20465;-76
2021/08/11 09:01:20;;;;;;;9.07;2.88;;;23.50;99.90;;;22.73;65.85;103294.69;5035005;28;20034;-76
2021/08/11 09:03:47;;;;;;;5.65;2.67;;;23.90;99.90;;;22.83;64.03;103286.94;4991838;28;20033;-77
2021/08/11 09:06:49;;;;;;;6.95;2.97;;;23.90;99.90;;;22.63;66.17;103216.44;4990251;28;20083;-76
2021/08/11 09:09:15;;;;;;;10.57;3.45;;;23.00;99.90;;;21.38;68.09;103055.44;4982965;28;20029;-77
2021/08/11 09:12:12;;;;;;;7.70;2.90;;;22.60;99.90;;;21.20;68.04;103035.91;4991944;28;20045;-77
2021/08/11 09:15:31;;;;;;;4.70;2.17;;;22.90;99.90;;;21.55;65.46;103094.75;4973622;28;20064;-76
2021/08/11 09:18:50;;;;;;;10.50;2.10;;;23.10;99.90;;;21.87;64.88;103272.63;4987973;28;20037;-77
2021/08/11 09:21:27;;;;;;;7.43;2.03;;;23.00;99.90;;;21.73;64.06;103166.13;5016014;28;20388;-77
2021/08/11 09:24:21;;;;;;;5.75;2.00;;;22.80;99.90;;;20.77;66.36;103014.13;4970620;28;20554;-76
2021/08/11 09:27:40;;;;;;;5.72;2.03;;;21.80;99.90;;;20.42;68.35;103001.63;4992085;28;20537;-77
2021/08/11 09:30:50;;;;;;;7.13;2.58;;;22.00;99.90;;;20.98;67.59;103058.50;4990801;28;20041;-76
2021/08/11 09:34:22;;;;;;;8.50;2.55;;;22.30;99.90;;;21.59;66.19;103089.13;4989367;28;20036;-77
2021/08/11 09:37:20;;;;;;;5.15;2.08;;;22.60;99.90;;;21.41;65.25;103159.81;5000517;28;20029;-77
2021/08/11 09:40:42;;;;;;;7.70;2.88;;;22.50;99.90;;;21.11;67.95;103104.25;5001212;28;20114;-76
2021/08/11 09:44:29;;;;;;;7.88;3.05;;;21.70;99.90;;;20.90;69.21;103087.50;4997451;28;20124;-76
2021/08/11 09:47:32;;;;;;;5.53;2.72;;;22.20;99.90;;;21.81;64.50;103182.63;5003155;28;20088;-77
2021/08/11 09:50:58;;;;;;;7.68;2.60;;;22.70;99.90;;;22.35;64.36;103205.59;4985603;28;20048;-77
2021/08/11 09:54:18;;;;;;;7.63;2.35;;;22.80;99.90;;;21.51;62.89;103075.28;4984562;28;20043;-77
2021/08/11 09:58:04;;;;;;;10.60;2.58;;;22.90;99.90;;;22.07;63.50;103137.38;5043376;28;20483;-76
2021/08/11 10:01:31;;;;;;;6.43;1.85;;;23.00;99.90;;;21.87;59.98;103080.38;4993120;28;20416;-77
2021/08/11 10:04:06;;;;;;;9.00;1.83;;;22.80;99.90;;;21.84;63.21;103061.78;4987156;28;20383;-77
2021/08/11 10:06:41;;;;;;;5.27;2.00;;;22.80;99.90;;;21.77;62.10;103043.44;5020922;28;24841;-77
2021/08/11 10:09:25;;;;;;;5.93;2.13;;;22.50;99.90;;;22.07;63.02;103081.03;5012343;28;20128;-78
2021/08/11 10:11:56;;;;;;;5.38;2.35;;;23.00;99.90;;;22.41;61.97;103313.47;5041985;28;20164;-76
2021/08/11 10:14:24;;;;;;;5.53;2.33;;;22.80;99.90;;;22.08;59.31;103184.72;5020507;28;20025;-77
2021/08/11 10:16:52;;;;;;;8.25;2.58;;;22.50;99.90;;;21.97;65.23;103144.25;5013115;28;25316;-77
2021/08/11 10:19:30;;;;;;;5.78;2.35;;;22.80;99.90;;;22.54;60.95;103165.97;5013377;28;20040;-76